sensor_id;sensor_type;location;lat;lon;timestamp;pressure;altitude;pressure_sealevel;temperature;humidity
57606;BME280;43430;48.204;11.556;2023-02-17T00:01:30;96803.97;;;7.95;100.00
57606;BME280;43430;48.204;11.556;2023-02-17T00:03:55;96803.97;;;7.95;100.00
57606;BME280;43430;48.204;11.556;2023-02-17T00:06:25;96804.53;;;7.90;100.00
57606;BME280;43430;48.204;11.556;2023-02-17T00:08:51;96805.91;;;7.86;100.00
57606;BME280;43430;48.204;11.556;2023-02-17T00:11:17;96793.88;;;7.92;100.00
57606;BME280;43430;48.204;11.556;2023-02-17T00:13:43;96806.72;;;7.87;100.00
57606;BME280;43430;48.204;11.556;2023-02-17T00:16:11;96805.09;;;7.85;100.00
57606;BME280;43430;48.204;11.556;2023-02-17T00:18:37;96804.91;;;7.87;100.00
57606;BME280;43430;48.204;11.556;2023-02-17T00:21:17;96802.84;;;7.82;100.00
57606;BME280;43430;48.204;11.556;2023-02-17T00:23:44;96795.78;;;7.83;100.00
57606;BME280;43430;48.204;11.556;2023-02-17T00:26:09;96799.41;;;7.82;100.00
57606;BME280;43430;48.204;11.556;2023-02-17T00:28:35;96796.13;;;7.80;100.00
57606;BME280;43430;48.204;11.556;2023-02-17T00:31:09;96795.13;;;7.81;100.00
57606;BME280;43430;48.204;11.556;2023-02-17T00:33:35;96800.38;;;7.81;100.00
57606;BME280;43430;48.204;11.556;2023-02-17T00:36:11;96789.63;;;7.76;100.00
57606;BME280;43430;48.204;11.556;2023-02-17T00:38:37;96795.97;;;7.67;100.00
57606;BME280;43430;48.204;11.556;2023-02-17T00:41:03;96801.06;;;7.68;100.00
57606;BME280;43430;48.204;11.556;2023-02-17T00:43:28;96800.25;;;7.68;100.00
57606;BME280;43430;48.204;11.556;2023-02-17T00:45:54;96801.22;;;7.67;100.00
57606;BME280;43430;48.204;11.556;2023-02-17T00:48:20;96800.25;;;7.68;100.00
57606;BME280;43430;48.204;11.556;2023-02-17T00:50:46;96795.34;;;7.65;100.00
57606;BME280;43430;48.204;11.556;2023-02-17T00:53:11;96800.41;;;7.66;100.00
57606;BME280;43430;48.204;11.556;2023-02-17T00:55:37;96800.31;;;7.59;100.00
57606;BME280;43430;48.204;11.556;2023-02-17T00:58:02;96805.56;;;7.59;100.00
57606;BME280;43430;48.204;11.556;2023-02-17T01:00:28;96797.44;;;7.54;100.00
57606;BME280;43430;48.204;11.556;2023-02-17T01:02:53;96801.59;;;7.49;100.00
57606;BME280;43430;48.204;11.556;2023-02-17T01:05:19;96803.50;;;7.55;100.00
57606;BME280;43430;48.204;11.556;2023-02-17T01:07:44;96804.97;;;7.57;100.00
57606;BME280;43430;48.204;11.556;2023-02-17T01:10:10;96796.34;;;7.49;100.00
57606;BME280;43430;48.204;11.556;2023-02-17T01:12:36;96801.50;;;7.42;100.00
57606;BME280;43430;48.204;11.556;2023-02-17T01:15:02;96800.06;;;7.40;100.00
57606;BME280;43430;48.204;11.556;2023-02-17T01:17:28;96796.97;;;7.36;100.00
57606;BME280;43430;48.204;11.556;2023-02-17T01:19:53;96796.81;;;7.37;100.00
57606;BME280;43430;48.204;11.556;2023-02-17T01:22:19;96794.34;;;7.36;100.00
57606;BME280;43430;48.204;11.556;2023-02-17T01:24:44;96788.75;;;7.39;100.00
57606;BME280;43430;48.204;11.556;2023-02-17T01:27:09;96784.31;;;7.40;100.00
57606;BME280;43430;48.204;11.556;2023-02-17T01:29:35;96779.72;;;7.42;100.00
57606;BME280;43430;48.204;11.556;2023-02-17T01:32:00;96781.25;;;7.36;100.00
57606;BME280;43430;48.204;11.556;2023-02-17T01:34:26;96781.88;;;7.38;100.00
57606;BME280;43430;48.204;11.556;2023-02-17T01:36:51;96782.53;;;7.40;100.00
57606;BME280;43430;48.204;11.556;2023-02-17T01:39:17;96785.16;;;7.40;100.00
57606;BME280;43430;48.204;11.556;2023-02-17T01:41:42;96778.34;;;7.46;100.00
57606;BME280;43430;48.204;11.556;2023-02-17T01:46:34;96788.69;;;7.47;100.00
57606;BME280;43430;48.204;11.556;2023-02-17T01:49:02;96785.84;;;7.49;100.00
57606;BME280;43430;48.204;11.556;2023-02-17T01:51:33;96785.84;;;7.49;100.00
57606;BME280;43430;48.204;11.556;2023-02-17T01:56:30;96773.91;;;7.46;100.00
57606;BME280;43430;48.204;11.556;2023-02-17T01:58:59;96778.78;;;7.49;100.00
57606;BME280;43430;48.204;11.556;2023-02-17T02:01:27;96775.56;;;7.47;100.00
57606;BME280;43430;48.204;11.556;2023-02-17T02:03:53;96774.75;;;7.47;100.00
57606;BME280;43430;48.204;11.556;2023-02-17T02:06:24;96765.69;;;7.49;100.00
57606;BME280;43430;48.204;11.556;2023-02-17T02:08:55;96769.50;;;7.47;100.00
57606;BME280;43430;48.204;11.556;2023-02-17T02:11:21;96773.91;;;7.46;100.00
57606;BME280;43430;48.204;11.556;2023-02-17T02:13:48;96775.09;;;7.44;100.00
57606;BME280;43430;48.204;11.556;2023-02-17T02:21:42;96768.56;;;7.40;100.00
57606;BME280;43430;48.204;11.556;2023-02-17T02:30:05;96775.81;;;7.52;100.00
57606;BME280;43430;48.204;11.556;2023-02-17T02:35:27;96780.06;;;7.53;100.00
57606;BME280;43430;48.204;11.556;2023-02-17T02:40:29;96781.34;;;7.57;100.00
57606;BME280;43430;48.204;11.556;2023-02-17T02:42:57;96779.06;;;7.54;100.00
57606;BME280;43430;48.204;11.556;2023-02-17T02:45:24;96779.44;;;7.51;100.00
57606;BME280;43430;48.204;11.556;2023-02-17T03:05:10;96753.56;;;7.48;100.00
57606;BME280;43430;48.204;11.556;2023-02-17T03:10:07;96748.84;;;7.58;100.00
57606;BME280;43430;48.204;11.556;2023-02-17T03:12:35;96741.22;;;7.64;100.00
57606;BME280;43430;48.204;11.556;2023-02-17T03:15:26;96731.16;;;7.67;100.00
57606;BME280;43430;48.204;11.556;2023-02-17T03:17:56;96730.19;;;7.68;100.00
57606;BME280;43430;48.204;11.556;2023-02-17T03:20:21;96733.06;;;7.73;100.00
57606;BME280;43430;48.204;11.556;2023-02-17T03:22:47;96727.88;;;7.80;100.00
57606;BME280;43430;48.204;11.556;2023-02-17T03:25:13;96734.13;;;7.79;100.00
57606;BME280;43430;48.204;11.556;2023-02-17T03:27:39;96730.13;;;7.83;100.00
57606;BME280;43430;48.204;11.556;2023-02-17T03:30:05;96728.16;;;7.85;100.00
57606;BME280;43430;48.204;11.556;2023-02-17T03:32:31;96725.91;;;7.82;100.00
57606;BME280;43430;48.204;11.556;2023-02-17T03:34:56;96721.25;;;7.84;100.00
57606;BME280;43430;48.204;11.556;2023-02-17T03:37:22;96723.88;;;7.84;100.00
57606;BME280;43430;48.204;11.556;2023-02-17T03:39:47;96721.91;;;7.86;100.00
57606;BME280;43430;48.204;11.556;2023-02-17T03:42:13;96717.44;;;7.87;100.00
57606;BME280;43430;48.204;11.556;2023-02-17T03:44:38;96720.50;;;7.90;100.00
57606;BME280;43430;48.204;11.556;2023-02-17T03:47:03;96718.53;;;7.92;100.00
57606;BME280;43430;48.204;11.556;2023-02-17T03:49:29;96722.78;;;7.93;100.00
57606;BME280;43430;48.204;11.556;2023-02-17T03:51:54;96726.47;;;7.99;100.00
57606;BME280;43430;48.204;11.556;2023-02-17T03:54:20;96714.41;;;8.04;100.00
57606;BME280;43430;48.204;11.556;2023-02-17T03:56:45;96722.72;;;8.08;100.00
57606;BME280;43430;48.204;11.556;2023-02-17T03:59:10;96717.28;;;8.09;100.00
57606;BME280;43430;48.204;11.556;2023-02-17T04:01:36;96707.28;;;8.20;100.00
57606;BME280;43430;48.204;11.556;2023-02-17T04:04:01;96713.13;;;8.22;99.80
57606;BME280;43430;48.204;11.556;2023-02-17T04:06:27;96716.19;;;8.25;99.67
57606;BME280;43430;48.204;11.556;2023-02-17T04:08:52;96708.38;;;8.32;98.14
57606;BME280;43430;48.204;11.556;2023-02-17T04:11:18;96711.38;;;8.29;99.39
57606;BME280;43430;48.204;11.556;2023-02-17T04:13:43;96710.28;;;8.38;98.27
57606;BME280;43430;48.204;11.556;2023-02-17T04:16:09;96701.59;;;8.38;99.01
57606;BME280;43430;48.204;11.556;2023-02-17T04:18:36;96706.19;;;8.36;98.52
57606;BME280;43430;48.204;11.556;2023-02-17T04:21:03;96703.31;;;8.30;98.96
57606;BME280;43430;48.204;11.556;2023-02-17T04:23:29;96702.69;;;8.28;99.23
57606;BME280;43430;48.204;11.556;2023-02-17T04:25:54;96704.94;;;8.31;98.04
57606;BME280;43430;48.204;11.556;2023-02-17T04:28:20;96701.72;;;8.29;97.84
57606;BME280;43430;48.204;11.556;2023-02-17T04:30:47;96697.50;;;8.35;98.36
57606;BME280;43430;48.204;11.556;2023-02-17T04:33:13;96706.19;;;8.36;97.99
57606;BME280;43430;48.204;11.556;2023-02-17T04:35:39;96701.38;;;8.39;96.16
57606;BME280;43430;48.204;11.556;2023-02-17T04:38:07;96701.00;;;8.42;95.91
57606;BME280;43430;48.204;11.556;2023-02-17T04:40:32;96702.84;;;8.42;96.08
57606;BME280;43430;48.204;11.556;2023-02-17T04:42:58;96702.03;;;8.41;95.15
57606;BME280;43430;48.204;11.556;2023-02-17T04:45:23;96699.59;;;8.40;94.60
57606;BME280;43430;48.204;11.556;2023-02-17T04:47:48;96699.41;;;8.41;94.14
57606;BME280;43430;48.204;11.556;2023-02-17T04:50:14;96698.59;;;8.41;94.88
57606;BME280;43430;48.204;11.556;2023-02-17T04:52:39;96694.16;;;8.41;94.29
57606;BME280;43430;48.204;11.556;2023-02-17T04:55:05;96696.78;;;8.41;93.77
57606;BME280;43430;48.204;11.556;2023-02-17T04:57:31;96693.38;;;8.47;92.93
57606;BME280;43430;48.204;11.556;2023-02-17T04:59:56;96691.56;;;8.48;92.50
57606;BME280;43430;48.204;11.556;2023-02-17T05:02:22;96689.94;;;8.47;93.52
57606;BME280;43430;48.204;11.556;2023-02-17T05:04:47;96690.94;;;8.46;93.93
57606;BME280;43430;48.204;11.556;2023-02-17T05:07:13;96687.28;;;8.40;93.68
57606;BME280;43430;48.204;11.556;2023-02-17T05:09:38;96681.63;;;8.43;94.88
57606;BME280;43430;48.204;11.556;2023-02-17T05:12:05;96679.25;;;8.48;94.63
57606;BME280;43430;48.204;11.556;2023-02-17T05:14:31;96680.47;;;8.52;92.40
57606;BME280;43430;48.204;11.556;2023-02-17T05:16:57;96688.63;;;8.58;92.45
57606;BME280;43430;48.204;11.556;2023-02-17T05:19:22;96673.81;;;8.56;93.06
57606;BME280;43430;48.204;11.556;2023-02-17T05:21:48;96676.22;;;8.51;93.50
57606;BME280;43430;48.204;11.556;2023-02-17T05:24:13;96677.25;;;8.50;95.12
57606;BME280;43430;48.204;11.556;2023-02-17T05:26:38;96680.09;;;8.55;93.29
57606;BME280;43430;48.204;11.556;2023-02-17T05:29:04;96676.06;;;8.60;93.26
57606;BME280;43430;48.204;11.556;2023-02-17T05:31:29;96670.78;;;8.53;94.64
57606;BME280;43430;48.204;11.556;2023-02-17T05:33:54;96677.84;;;8.52;94.86
57606;BME280;43430;48.204;11.556;2023-02-17T05:36:20;96673.81;;;8.50;96.23
57606;BME280;43430;48.204;11.556;2023-02-17T05:38:46;96674.19;;;8.47;98.26
57606;BME280;43430;48.204;11.556;2023-02-17T05:41:14;96680.84;;;8.49;97.91
57606;BME280;43430;48.204;11.556;2023-02-17T05:43:40;96678.44;;;8.48;98.17
57606;BME280;43430;48.204;11.556;2023-02-17T05:46:05;96678.06;;;8.51;97.92
57606;BME280;43430;48.204;11.556;2023-02-17T05:48:31;96676.44;;;8.50;100.00
57606;BME280;43430;48.204;11.556;2023-02-17T05:50:57;96675.81;;;8.48;100.00
57606;BME280;43430;48.204;11.556;2023-02-17T05:53:22;96675.00;;;8.47;100.00
57606;BME280;43430;48.204;11.556;2023-02-17T05:55:47;96674.56;;;8.44;100.00
57606;BME280;43430;48.204;11.556;2023-02-17T05:58:13;96676.66;;;8.55;100.00
57606;BME280;43430;48.204;11.556;2023-02-17T06:00:38;96687.59;;;8.59;100.00
57606;BME280;43430;48.204;11.556;2023-02-17T06:03:04;96691.28;;;8.64;100.00
57606;BME280;43430;48.204;11.556;2023-02-17T06:05:29;96697.91;;;8.60;100.00
57606;BME280;43430;48.204;11.556;2023-02-17T06:07:55;96685.22;;;8.64;100.00
57606;BME280;43430;48.204;11.556;2023-02-17T06:10:20;96690.28;;;8.65;100.00
57606;BME280;43430;48.204;11.556;2023-02-17T06:12:45;96690.31;;;8.72;100.00
57606;BME280;43430;48.204;11.556;2023-02-17T06:15:11;96699.28;;;8.77;100.00
57606;BME280;43430;48.204;11.556;2023-02-17T06:17:36;96691.19;;;8.79;100.00
57606;BME280;43430;48.204;11.556;2023-02-17T06:20:02;96697.06;;;8.81;100.00
57606;BME280;43430;48.204;11.556;2023-02-17T06:22:28;96708.63;;;8.87;100.00
57606;BME280;43430;48.204;11.556;2023-02-17T06:24:53;96722.53;;;8.80;100.00
57606;BME280;43430;48.204;11.556;2023-02-17T06:27:19;96720.47;;;8.76;100.00
57606;BME280;43430;48.204;11.556;2023-02-17T06:29:44;96720.25;;;8.71;100.00
57606;BME280;43430;48.204;11.556;2023-02-17T06:32:09;96717.16;;;8.61;100.00
57606;BME280;43430;48.204;11.556;2023-02-17T06:34:35;96718.44;;;8.43;100.00
57606;BME280;43430;48.204;11.556;2023-02-17T06:37:00;96715.66;;;8.30;100.00
57606;BME280;43430;48.204;11.556;2023-02-17T06:39:25;96714.44;;;8.32;100.00
57606;BME280;43430;48.204;11.556;2023-02-17T06:41:51;96717.38;;;8.38;100.00
57606;BME280;43430;48.204;11.556;2023-02-17T06:44:16;96721.44;;;8.40;100.00
57606;BME280;43430;48.204;11.556;2023-02-17T06:46:42;96714.53;;;8.39;100.00
57606;BME280;43430;48.204;11.556;2023-02-17T06:49:10;96715.88;;;8.35;100.00
57606;BME280;43430;48.204;11.556;2023-02-17T06:51:35;96706.19;;;8.36;100.00
57606;BME280;43430;48.204;11.556;2023-02-17T06:54:00;96704.84;;;8.40;100.00
57606;BME280;43430;48.204;11.556;2023-02-17T06:56:26;96706.66;;;8.39;100.00
57606;BME280;43430;48.204;11.556;2023-02-17T06:58:51;96704.88;;;8.46;100.00
57606;BME280;43430;48.204;11.556;2023-02-17T07:01:19;96712.00;;;8.52;100.00
57606;BME280;43430;48.204;11.556;2023-02-17T07:03:45;96708.16;;;8.48;100.00
57606;BME280;43430;48.204;11.556;2023-02-17T07:06:11;96703.16;;;8.53;100.00
57606;BME280;43430;48.204;11.556;2023-02-17T07:08:36;96705.63;;;8.62;100.00
57606;BME280;43430;48.204;11.556;2023-02-17T07:11:06;96701.59;;;8.66;100.00
57606;BME280;43430;48.204;11.556;2023-02-17T07:13:31;96710.06;;;8.61;100.00
57606;BME280;43430;48.204;11.556;2023-02-17T07:15:57;96711.91;;;8.61;100.00
57606;BME280;43430;48.204;11.556;2023-02-17T07:18:22;96711.75;;;8.69;100.00
57606;BME280;43430;48.204;11.556;2023-02-17T07:20:48;96717.44;;;8.72;100.00
57606;BME280;43430;48.204;11.556;2023-02-17T07:23:13;96717.47;;;8.79;100.00
57606;BME280;43430;48.204;11.556;2023-02-17T07:25:39;96717.69;;;8.84;100.00
57606;BME280;43430;48.204;11.556;2023-02-17T07:28:04;96703.22;;;8.95;100.00
57606;BME280;43430;48.204;11.556;2023-02-17T07:30:30;96710.38;;;9.08;100.00
57606;BME280;43430;48.204;11.556;2023-02-17T07:32:55;96709.81;;;9.12;100.00
57606;BME280;43430;48.204;11.556;2023-02-17T07:35:20;96710.81;;;9.18;100.00
57606;BME280;43430;48.204;11.556;2023-02-17T07:37:46;96721.41;;;9.31;100.00
57606;BME280;43430;48.204;11.556;2023-02-17T07:40:12;96722.25;;;9.38;100.00
57606;BME280;43430;48.204;11.556;2023-02-17T07:42:37;96709.34;;;9.43;100.00
57606;BME280;43430;48.204;11.556;2023-02-17T07:45:03;96707.72;;;9.49;100.00
57606;BME280;43430;48.204;11.556;2023-02-17T07:47:31;96715.88;;;9.54;100.00
57606;BME280;43430;48.204;11.556;2023-02-17T07:49:57;96720.31;;;9.54;100.00
57606;BME280;43430;48.204;11.556;2023-02-17T07:52:22;96719.06;;;9.49;100.00
57606;BME280;43430;48.204;11.556;2023-02-17T07:54:47;96718.28;;;9.56;100.00
57606;BME280;43430;48.204;11.556;2023-02-17T07:57:13;96719.94;;;9.57;100.00
57606;BME280;43430;48.204;11.556;2023-02-17T07:59:38;96725.63;;;9.60;100.00
57606;BME280;43430;48.204;11.556;2023-02-17T08:02:04;96732.50;;;9.61;100.00
57606;BME280;43430;48.204;11.556;2023-02-17T08:04:29;96732.78;;;9.38;100.00
57606;BME280;43430;48.204;11.556;2023-02-17T08:06:56;96728.72;;;9.29;100.00
57606;BME280;43430;48.204;11.556;2023-02-17T08:09:21;96725.06;;;9.30;100.00
57606;BME280;43430;48.204;11.556;2023-02-17T08:12:12;96729.97;;;9.40;100.00
57606;BME280;43430;48.204;11.556;2023-02-17T08:14:58;96730.00;;;9.46;100.00
57606;BME280;43430;48.204;11.556;2023-02-17T08:17:23;96728.41;;;9.52;100.00
57606;BME280;43430;48.204;11.556;2023-02-17T08:19:48;96715.06;;;9.54;100.00
57606;BME280;43430;48.204;11.556;2023-02-17T08:22:17;96720.34;;;9.60;100.00
57606;BME280;43430;48.204;11.556;2023-02-17T08:24:43;96728.47;;;9.65;100.00
57606;BME280;43430;48.204;11.556;2023-02-17T08:27:08;96734.34;;;9.67;100.00
57606;BME280;43430;48.204;11.556;2023-02-17T08:29:33;96739.06;;;9.37;100.00
57606;BME280;43430;48.204;11.556;2023-02-17T08:31:59;96739.75;;;9.18;100.00
57606;BME280;43430;48.204;11.556;2023-02-17T08:34:24;96737.91;;;9.12;100.00
57606;BME280;43430;48.204;11.556;2023-02-17T08:36:49;96746.38;;;9.07;100.00
57606;BME280;43430;48.204;11.556;2023-02-17T08:39:16;96740.34;;;9.13;100.00
57606;BME280;43430;48.204;11.556;2023-02-17T08:41:42;96739.22;;;9.22;100.00
57606;BME280;43430;48.204;11.556;2023-02-17T08:44:14;96736.56;;;9.22;100.00
57606;BME280;43430;48.204;11.556;2023-02-17T08:46:40;96742.91;;;9.35;100.00
57606;BME280;43430;48.204;11.556;2023-02-17T08:49:06;96751.59;;;9.35;100.00
57606;BME280;43430;48.204;11.556;2023-02-17T08:51:32;96748.81;;;9.43;100.00
57606;BME280;43430;48.204;11.556;2023-02-17T08:53:59;96750.09;;;9.54;100.00
57606;BME280;43430;48.204;11.556;2023-02-17T08:56:28;96751.53;;;9.57;100.00
57606;BME280;43430;48.204;11.556;2023-02-17T08:58:54;96764.63;;;9.43;100.00
57606;BME280;43430;48.204;11.556;2023-02-17T09:01:19;96759.25;;;9.23;100.00
57606;BME280;43430;48.204;11.556;2023-02-17T09:03:46;96773.50;;;9.08;100.00
57606;BME280;43430;48.204;11.556;2023-02-17T09:06:12;96770.28;;;9.06;100.00
57606;BME280;43430;48.204;11.556;2023-02-17T09:08:38;96780.00;;;9.12;100.00
57606;BME280;43430;48.204;11.556;2023-02-17T09:11:05;96768.66;;;9.11;100.00
57606;BME280;43430;48.204;11.556;2023-02-17T09:13:31;96775.22;;;9.22;100.00
57606;BME280;43430;48.204;11.556;2023-02-17T09:15:57;96774.47;;;9.35;100.00
57606;BME280;43430;48.204;11.556;2023-02-17T09:18:22;96770.88;;;9.42;100.00
57606;BME280;43430;48.204;11.556;2023-02-17T09:20:48;96760.38;;;9.49;100.00
57606;BME280;43430;48.204;11.556;2023-02-17T09:23:14;96771.56;;;9.58;100.00
57606;BME280;43430;48.204;11.556;2023-02-17T09:25:40;96772.19;;;9.66;100.00
57606;BME280;43430;48.204;11.556;2023-02-17T09:28:05;96760.88;;;9.66;100.00
57606;BME280;43430;48.204;11.556;2023-02-17T09:30:31;96759.69;;;9.75;100.00
57606;BME280;43430;48.204;11.556;2023-02-17T09:32:58;96762.94;;;9.84;100.00
57606;BME280;43430;48.204;11.556;2023-02-17T09:35:24;96757.72;;;9.90;100.00
57606;BME280;43430;48.204;11.556;2023-02-17T09:37:49;96752.03;;;9.93;100.00
57606;BME280;43430;48.204;11.556;2023-02-17T09:40:18;96757.94;;;9.95;100.00
57606;BME280;43430;48.204;11.556;2023-02-17T09:42:44;96754.09;;;9.91;100.00
57606;BME280;43430;48.204;11.556;2023-02-17T09:45:14;96755.69;;;9.92;100.00
57606;BME280;43430;48.204;11.556;2023-02-17T09:47:47;96757.94;;;9.95;100.00
57606;BME280;43430;48.204;11.556;2023-02-17T09:50:17;96762.00;;;9.91;100.00
57606;BME280;43430;48.204;11.556;2023-02-17T09:55:25;96767.47;;;10.03;100.00
57606;BME280;43430;48.204;11.556;2023-02-17T09:58:14;96771.97;;;10.09;100.00
57606;BME280;43430;48.204;11.556;2023-02-17T10:00:45;96768.75;;;10.20;100.00
57606;BME280;43430;48.204;11.556;2023-02-17T10:05:56;96756.44;;;10.48;100.00
57606;BME280;43430;48.204;11.556;2023-02-17T10:08:31;96754.00;;;10.73;100.00
57606;BME280;43430;48.204;11.556;2023-02-17T10:11:36;96751.38;;;10.92;100.00
57606;BME280;43430;48.204;11.556;2023-02-17T10:14:31;96748.09;;;11.10;100.00
57606;BME280;43430;48.204;11.556;2023-02-17T10:17:07;96743.03;;;11.15;100.00
57606;BME280;43430;48.204;11.556;2023-02-17T10:19:50;96744.47;;;11.11;100.00
57606;BME280;43430;48.204;11.556;2023-02-17T10:22:20;96746.66;;;11.08;100.00
57606;BME280;43430;48.204;11.556;2023-02-17T10:24:46;96745.06;;;11.13;100.00
57606;BME280;43430;48.204;11.556;2023-02-17T10:32:59;96729.34;;;11.32;100.00
57606;BME280;43430;48.204;11.556;2023-02-17T10:36:29;96724.28;;;11.37;100.00
57606;BME280;43430;48.204;11.556;2023-02-17T10:38:52;96732.59;;;11.47;100.00
57606;BME280;43430;48.204;11.556;2023-02-17T10:41:33;96724.41;;;11.55;100.00
57606;BME280;43430;48.204;11.556;2023-02-17T10:44:00;96719.88;;;11.69;100.00
57606;BME280;43430;48.204;11.556;2023-02-17T10:46:29;96713.78;;;11.75;100.00
57606;BME280;43430;48.204;11.556;2023-02-17T10:48:56;96732.84;;;11.91;100.00
57606;BME280;43430;48.204;11.556;2023-02-17T10:51:28;96722.66;;;11.94;100.00
57606;BME280;43430;48.204;11.556;2023-02-17T10:54:06;96719.75;;;12.02;100.00
57606;BME280;43430;48.204;11.556;2023-02-17T10:56:42;96716.72;;;11.99;100.00
57606;BME280;43430;48.204;11.556;2023-02-17T10:59:20;96727.03;;;12.07;100.00
57606;BME280;43430;48.204;11.556;2023-02-17T11:01:47;96723.59;;;12.06;100.00
57606;BME280;43430;48.204;11.556;2023-02-17T11:04:13;96715.88;;;12.05;100.00
57606;BME280;43430;48.204;11.556;2023-02-17T11:06:46;96705.16;;;11.93;100.00
57606;BME280;43430;48.204;11.556;2023-02-17T11:09:21;96707.63;;;11.95;100.00
57606;BME280;43430;48.204;11.556;2023-02-17T11:14:29;96707.22;;;12.23;100.00
57606;BME280;43430;48.204;11.556;2023-02-17T11:17:00;96701.63;;;12.38;100.00
57606;BME280;43430;48.204;11.556;2023-02-17T11:21:53;96689.47;;;12.55;100.00
57606;BME280;43430;48.204;11.556;2023-02-17T11:24:18;96695.97;;;12.59;100.00
57606;BME280;43430;48.204;11.556;2023-02-17T11:26:54;96687.00;;;12.60;100.00
57606;BME280;43430;48.204;11.556;2023-02-17T11:29:21;96698.84;;;12.57;100.00
57606;BME280;43430;48.204;11.556;2023-02-17T11:34:27;96692.44;;;12.65;100.00
57606;BME280;43430;48.204;11.556;2023-02-17T11:37:04;96687.75;;;12.67;100.00
57606;BME280;43430;48.204;11.556;2023-02-17T11:39:37;96678.66;;;12.63;100.00
57606;BME280;43430;48.204;11.556;2023-02-17T11:42:15;96672.31;;;12.64;100.00
57606;BME280;43430;48.204;11.556;2023-02-17T11:44:41;96666.91;;;12.52;100.00
57606;BME280;43430;48.204;11.556;2023-02-17T11:50:31;96668.81;;;12.45;100.00
57606;BME280;43430;48.204;11.556;2023-02-17T11:56:21;96664.25;;;12.52;100.00
57606;BME280;43430;48.204;11.556;2023-02-17T11:58:59;96654.78;;;12.45;100.00
57606;BME280;43430;48.204;11.556;2023-02-17T12:01:52;96651.13;;;12.46;100.00
57606;BME280;43430;48.204;11.556;2023-02-17T12:04:26;96641.56;;;12.45;100.00
57606;BME280;43430;48.204;11.556;2023-02-17T12:06:59;96644.63;;;12.42;100.00
57606;BME280;43430;48.204;11.556;2023-02-17T12:09:47;96656.78;;;12.49;100.00
57606;BME280;43430;48.204;11.556;2023-02-17T12:12:28;96653.25;;;12.55;100.00
57606;BME280;43430;48.204;11.556;2023-02-17T12:25:43;96638.97;;;12.38;100.00
57606;BME280;43430;48.204;11.556;2023-02-17T12:36:18;96637.13;;;12.64;100.00
57606;BME280;43430;48.204;11.556;2023-02-17T12:38:48;96647.16;;;12.55;100.00
57606;BME280;43430;48.204;11.556;2023-02-17T12:43:57;96645.38;;;12.49;100.00
57606;BME280;43430;48.204;11.556;2023-02-17T12:46:40;96649.47;;;12.45;100.00
57606;BME280;43430;48.204;11.556;2023-02-17T12:51:48;96650.44;;;12.32;100.00
57606;BME280;43430;48.204;11.556;2023-02-17T12:54:24;96651.84;;;12.28;100.00
57606;BME280;43430;48.204;11.556;2023-02-17T12:57:10;96645.75;;;12.27;100.00
57606;BME280;43430;48.204;11.556;2023-02-17T12:59:39;96636.22;;;12.26;100.00
57606;BME280;43430;48.204;11.556;2023-02-17T13:02:08;96640.66;;;12.32;100.00
57606;BME280;43430;48.204;11.556;2023-02-17T13:04:34;96641.84;;;12.37;100.00
57606;BME280;43430;48.204;11.556;2023-02-17T13:07:14;96652.03;;;12.33;100.00
57606;BME280;43430;48.204;11.556;2023-02-17T13:09:44;96637.63;;;12.29;100.00
57606;BME280;43430;48.204;11.556;2023-02-17T13:12:31;96645.56;;;12.29;100.00
57606;BME280;43430;48.204;11.556;2023-02-17T13:15:03;96644.34;;;12.25;100.00
57606;BME280;43430;48.204;11.556;2023-02-17T13:17:31;96650.47;;;12.25;100.00
57606;BME280;43430;48.204;11.556;2023-02-17T13:22:36;96652.66;;;12.28;100.00
57606;BME280;43430;48.204;11.556;2023-02-17T13:25:01;96652.94;;;12.20;100.00
57606;BME280;43430;48.204;11.556;2023-02-17T13:32:41;96639.28;;;11.98;100.00
57606;BME280;43430;48.204;11.556;2023-02-17T13:37:52;96636.84;;;11.97;100.00
57606;BME280;43430;48.204;11.556;2023-02-17T13:45:20;96638.09;;;11.94;100.00
57606;BME280;43430;48.204;11.556;2023-02-17T13:47:49;96642.38;;;11.88;100.00
57606;BME280;43430;48.204;11.556;2023-02-17T13:50:36;96637.09;;;11.88;100.00
57606;BME280;43430;48.204;11.556;2023-02-17T13:53:20;96647.28;;;11.85;100.00
57606;BME280;43430;48.204;11.556;2023-02-17T13:55:46;96637.53;;;11.85;100.00
57606;BME280;43430;48.204;11.556;2023-02-17T13:58:11;96636.72;;;11.85;100.00
57606;BME280;43430;48.204;11.556;2023-02-17T14:00:37;96639.75;;;11.82;100.00
57606;BME280;43430;48.204;11.556;2023-02-17T14:03:22;96643.19;;;11.82;100.00
57606;BME280;43430;48.204;11.556;2023-02-17T14:05:51;96647.91;;;11.80;100.00
57606;BME280;43430;48.204;11.556;2023-02-17T14:08:22;96647.91;;;11.80;100.00
57606;BME280;43430;48.204;11.556;2023-02-17T14:10:51;96653.38;;;11.85;100.00
57606;BME280;43430;48.204;11.556;2023-02-17T14:13:17;96639.75;;;11.82;100.00
57606;BME280;43430;48.204;11.556;2023-02-17T14:18:29;96646.66;;;11.83;100.00
57606;BME280;43430;48.204;11.556;2023-02-17T14:21:06;96658.25;;;11.82;100.00
57606;BME280;43430;48.204;11.556;2023-02-17T14:23:49;96659.28;;;11.87;100.00
57606;BME280;43430;48.204;11.556;2023-02-17T14:26:43;96651.94;;;11.83;100.00
57606;BME280;43430;48.204;11.556;2023-02-17T14:29:11;96659.28;;;11.81;100.00
57606;BME280;43430;48.204;11.556;2023-02-17T14:31:42;96664.19;;;11.84;100.00
57606;BME280;43430;48.204;11.556;2023-02-17T14:34:32;96653.78;;;11.82;100.00
57606;BME280;43430;48.204;11.556;2023-02-17T14:37:08;96659.47;;;11.86;100.00
57606;BME280;43430;48.204;11.556;2023-02-17T14:39:34;96660.88;;;11.88;100.00
57606;BME280;43430;48.204;11.556;2023-02-17T14:41:59;96662.13;;;11.86;100.00
57606;BME280;43430;48.204;11.556;2023-02-17T14:44:24;96664.56;;;11.87;100.00